createdAt,value
2023-11-24T00:00:33.284Z,3.33
2023-11-24T00:03:00.680Z,2.60
2023-11-24T00:05:27.870Z,2.92
2023-11-24T00:07:54.923Z,2.83
2023-11-24T00:10:21.867Z,3.33
2023-11-24T00:12:49.028Z,2.83
2023-11-24T00:15:16.101Z,4.25
2023-11-24T00:17:43.563Z,2.13
2023-11-24T00:20:11.908Z,2.78
2023-11-24T00:22:39.156Z,3.45
2023-11-24T00:25:06.718Z,1.88
2023-11-24T00:27:34.044Z,2.53
2023-11-24T00:30:02.075Z,3.17
2023-11-24T00:32:29.178Z,3.55
2023-11-24T00:34:57.468Z,3.00
2023-11-24T00:37:24.605Z,3.30
2023-11-24T00:39:51.737Z,2.55
2023-11-24T00:42:18.780Z,4.95
2023-11-24T00:44:45.724Z,2.75
2023-11-24T00:47:12.816Z,1.90
2023-11-24T00:49:40.758Z,2.00
2023-11-24T00:52:07.830Z,1.67
2023-11-24T00:54:34.758Z,2.05
2023-11-24T00:57:01.827Z,2.70
2023-11-24T00:59:28.704Z,2.30
2023-11-24T01:01:55.793Z,1.92
2023-11-24T01:04:23.929Z,2.10
2023-11-24T01:06:51.513Z,2.00
2023-11-24T01:09:18.650Z,1.83
2023-11-24T01:11:45.946Z,2.15
2023-11-24T01:14:13.055Z,1.73
2023-11-24T01:16:40.040Z,1.83
2023-11-24T01:19:08.206Z,2.15
2023-11-24T01:21:38.298Z,2.25
2023-11-24T01:24:05.709Z,2.08
2023-11-24T01:26:32.708Z,1.85
2023-11-24T01:29:03.857Z,4.32
2023-11-24T01:31:31.778Z,2.83
2023-11-24T01:33:59.774Z,1.95
2023-11-24T01:36:27.154Z,1.95
2023-11-24T01:38:54.188Z,3.42
2023-11-24T01:41:21.159Z,1.75
2023-11-24T01:43:59.152Z,1.80
2023-11-24T01:46:26.791Z,3.45
2023-11-24T01:48:55.136Z,4.95
2023-11-24T01:51:22.577Z,6.00
2023-11-24T01:53:50.827Z,5.60
2023-11-24T01:56:18.343Z,2.00
2023-11-24T01:58:45.567Z,2.20
2023-11-24T02:01:12.550Z,2.50
2023-11-24T02:03:39.508Z,2.83
2023-11-24T02:06:07.705Z,4.80
2023-11-24T02:08:35.783Z,2.45
2023-11-24T02:11:03.480Z,3.00
2023-11-24T02:13:30.412Z,3.55
2023-11-24T02:15:57.862Z,4.63
2023-11-24T02:18:25.535Z,4.45
2023-11-24T02:20:52.494Z,1.77
2023-11-24T02:23:19.418Z,2.47
2023-11-24T02:25:46.475Z,1.85
2023-11-24T02:28:13.578Z,3.08
2023-11-24T02:30:41.222Z,5.38
2023-11-24T02:33:09.336Z,1.45
2023-11-24T02:35:39.324Z,2.35
2023-11-24T02:38:06.638Z,1.27
2023-11-24T02:40:34.202Z,1.92
2023-11-24T02:43:01.804Z,1.50
2023-11-24T02:45:28.891Z,3.30
2023-11-24T02:47:56.094Z,2.33
2023-11-24T02:50:25.138Z,2.75
2023-11-24T02:52:52.258Z,2.05
2023-11-24T02:55:20.084Z,1.48
2023-11-24T02:57:48.115Z,2.75
2023-11-24T03:00:15.551Z,4.25
2023-11-24T03:02:42.542Z,1.95
2023-11-24T03:05:09.482Z,1.55
2023-11-24T03:07:36.641Z,1.65
2023-11-24T03:10:04.627Z,2.00
2023-11-24T03:12:31.651Z,3.85
2023-11-24T03:14:59.413Z,1.50
2023-11-24T03:17:26.327Z,1.67
2023-11-24T03:19:53.236Z,4.05
2023-11-24T03:22:20.337Z,2.30
2023-11-24T03:24:47.476Z,2.33
2023-11-24T03:27:14.456Z,1.83
2023-11-24T03:29:41.588Z,1.65
2023-11-24T03:32:08.651Z,2.20
2023-11-24T03:34:35.683Z,3.95
2023-11-24T03:37:02.674Z,1.52
2023-11-24T03:39:30.165Z,3.08
2023-11-24T03:41:57.699Z,3.05
2023-11-24T03:44:25.066Z,2.10
2023-11-24T03:46:52.089Z,1.90
2023-11-24T03:49:18.985Z,1.65
2023-11-24T03:51:45.947Z,1.40
2023-11-24T03:54:12.923Z,2.92
2023-11-24T03:56:39.989Z,1.17
2023-11-24T03:59:06.981Z,1.45
2023-11-24T04:01:34.658Z,2.78
2023-11-24T04:04:01.870Z,1.63
2023-11-24T04:06:28.851Z,2.78
2023-11-24T04:08:55.885Z,1.70
2023-11-24T04:11:23.236Z,1.73
2023-11-24T04:13:50.158Z,2.17
2023-11-24T04:16:19.115Z,1.48
2023-11-24T04:18:46.930Z,1.98
2023-11-24T04:21:15.227Z,1.83
2023-11-24T04:23:42.202Z,1.90
2023-11-24T04:26:09.487Z,3.72
2023-11-24T04:28:37.767Z,3.83
2023-11-24T04:31:05.252Z,1.33
2023-11-24T04:33:32.721Z,2.30
2023-11-24T04:35:59.662Z,1.88
2023-11-24T04:38:26.622Z,1.70
2023-11-24T04:40:54.072Z,1.38
2023-11-24T04:43:25.321Z,1.38
2023-11-24T04:45:52.586Z,2.72
2023-11-24T04:48:19.858Z,1.98
2023-11-24T04:50:46.814Z,1.55
2023-11-24T04:53:13.723Z,2.10
2023-11-24T04:55:40.621Z,2.00
2023-11-24T04:58:07.574Z,1.90
2023-11-24T05:00:34.485Z,2.33
2023-11-24T05:03:01.609Z,1.48
2023-11-24T05:05:28.561Z,1.42
2023-11-24T05:07:55.565Z,2.08
2023-11-24T05:10:22.512Z,2.05
2023-11-24T05:12:49.507Z,1.63
2023-11-24T05:15:16.683Z,2.25
2023-11-24T05:17:43.837Z,0.95
2023-11-24T05:20:13.927Z,4.32
2023-11-24T05:22:40.922Z,2.08
2023-11-24T05:25:09.037Z,1.77
2023-11-24T05:27:36.002Z,1.45
2023-11-24T05:30:07.648Z,1.88
2023-11-24T05:32:36.250Z,1.48
2023-11-24T05:35:04.148Z,2.25
2023-11-24T05:37:31.414Z,1.63
2023-11-24T05:39:59.493Z,1.55
2023-11-24T05:42:29.983Z,3.88
2023-11-24T05:44:57.175Z,0.98
2023-11-24T05:47:24.192Z,1.15
2023-11-24T05:49:52.846Z,3.08
2023-11-24T05:52:21.566Z,0.70
2023-11-24T05:54:49.945Z,2.63
2023-11-24T05:57:17.013Z,1.77
2023-11-24T05:59:44.444Z,1.55
2023-11-24T06:02:11.408Z,1.30
2023-11-24T06:04:39.216Z,0.73
2023-11-24T06:07:06.824Z,0.70
2023-11-24T06:09:37.143Z,1.63
2023-11-24T06:12:04.475Z,7.97
2023-11-24T06:14:31.831Z,1.65
2023-11-24T06:16:58.983Z,1.02
2023-11-24T06:19:26.116Z,1.25
2023-11-24T06:21:53.355Z,1.00
2023-11-24T06:24:21.532Z,1.27
2023-11-24T06:26:48.395Z,1.02
2023-11-24T06:29:16.037Z,2.75
2023-11-24T06:31:43.058Z,0.65
2023-11-24T06:34:12.254Z,4.05
2023-11-24T06:36:39.243Z,1.40
2023-11-24T06:39:10.990Z,1.58
2023-11-24T06:41:39.103Z,0.80
2023-11-24T06:44:06.538Z,1.45
2023-11-24T06:46:35.026Z,1.85
2023-11-24T06:49:02.211Z,1.23
2023-11-24T06:51:30.411Z,1.20
2023-11-24T06:53:58.273Z,1.05
2023-11-24T06:56:26.614Z,1.35
2023-11-24T06:58:55.731Z,1.33
2023-11-24T07:01:33.686Z,0.82
2023-11-24T07:04:01.671Z,0.85
2023-11-24T07:06:29.259Z,0.80
2023-11-24T07:08:56.435Z,1.13
2023-11-24T07:11:24.219Z,1.17
2023-11-24T07:13:52.642Z,1.33
2023-11-24T07:16:20.125Z,1.13
2023-11-24T07:18:47.319Z,1.45
2023-11-24T07:21:14.481Z,1.00
2023-11-24T07:23:42.217Z,0.93
2023-11-24T07:26:09.471Z,1.30
2023-11-24T07:28:37.062Z,1.02
2023-11-24T07:31:05.471Z,0.60
2023-11-24T07:33:33.305Z,1.17
2023-11-24T07:36:00.747Z,0.80
2023-11-24T07:38:28.104Z,0.95
2023-11-24T07:40:55.436Z,1.10
2023-11-24T07:43:22.446Z,1.27
2023-11-24T07:45:52.378Z,0.93
2023-11-24T07:48:19.530Z,1.02
2023-11-24T07:50:46.516Z,0.85
2023-11-24T07:53:15.660Z,1.48
2023-11-24T07:55:42.983Z,0.60
2023-11-24T07:58:10.191Z,1.42
2023-11-24T08:00:38.144Z,1.10
2023-11-24T08:03:05.748Z,0.77
2023-11-24T08:05:32.780Z,1.23
2023-11-24T08:08:01.993Z,0.90
2023-11-24T08:10:29.256Z,1.23
2023-11-24T08:12:56.290Z,0.93
2023-11-24T08:15:23.203Z,1.60
2023-11-24T08:17:50.170Z,2.00
2023-11-24T08:20:17.418Z,8.13
2023-11-24T08:22:44.606Z,4.57
2023-11-24T08:25:13.072Z,4.13
2023-11-24T08:27:40.645Z,4.82
2023-11-24T08:30:12.130Z,7.85
2023-11-24T08:32:43.545Z,6.15
2023-11-24T08:35:12.587Z,9.05
2023-11-24T08:37:40.046Z,6.75
2023-11-24T08:40:12.281Z,7.15
2023-11-24T08:42:40.147Z,5.53
2023-11-24T08:45:08.119Z,6.50
2023-11-24T08:47:35.250Z,10.00
2023-11-24T08:50:02.946Z,7.90
2023-11-24T08:52:29.869Z,8.27
2023-11-24T08:54:56.913Z,6.68
2023-11-24T08:57:23.840Z,10.20
2023-11-24T08:59:50.733Z,14.88
2023-11-24T09:02:17.696Z,6.50
2023-11-24T09:04:46.271Z,4.72
2023-11-24T09:07:13.684Z,8.05
2023-11-24T09:09:42.527Z,9.57
2023-11-24T09:12:09.524Z,8.38
2023-11-24T09:14:40.044Z,5.18
2023-11-24T09:17:10.682Z,6.47
2023-11-24T09:19:37.849Z,4.65
2023-11-24T09:22:05.315Z,7.00
2023-11-24T09:24:32.275Z,8.77
2023-11-24T09:26:59.222Z,5.53
2023-11-24T09:29:27.170Z,5.32
2023-11-24T09:31:55.106Z,8.55
2023-11-24T09:34:24.151Z,10.90
2023-11-24T09:36:52.967Z,12.43
2023-11-24T09:39:20.669Z,13.25
2023-11-24T09:41:50.955Z,10.52
2023-11-24T09:44:18.063Z,10.57
2023-11-24T09:46:51.509Z,12.55
2023-11-24T09:49:21.589Z,10.82
2023-11-24T09:51:49.316Z,8.00
2023-11-24T09:54:19.211Z,10.85
2023-11-24T09:56:46.436Z,10.05
2023-11-24T09:59:14.975Z,14.90
2023-11-24T10:01:44.035Z,10.88
2023-11-24T10:04:11.677Z,8.32
2023-11-24T10:06:40.674Z,7.72
2023-11-24T10:09:08.009Z,11.57
2023-11-24T10:11:36.990Z,8.43
2023-11-24T10:14:07.367Z,11.85
2023-11-24T10:16:42.354Z,9.60
2023-11-24T10:19:19.625Z,9.73
2023-11-24T10:21:52.085Z,11.68
2023-11-24T10:24:19.275Z,8.30
2023-11-24T10:26:47.307Z,9.75
2023-11-24T10:29:15.769Z,6.35
2023-11-24T10:31:45.031Z,5.75
2023-11-24T10:34:12.136Z,6.80
2023-11-24T10:36:39.675Z,8.15
2023-11-24T10:39:09.785Z,7.85
2023-11-24T10:41:43.990Z,8.75
2023-11-24T10:44:13.591Z,6.93
2023-11-24T10:46:45.780Z,7.47
2023-11-24T10:49:21.516Z,9.90
2023-11-24T10:54:36.249Z,6.90
2023-11-24T10:57:05.866Z,6.55
2023-11-24T10:59:36.297Z,5.97
2023-11-24T11:02:08.257Z,6.47
2023-11-24T11:04:37.664Z,6.88
2023-11-24T11:07:28.822Z,5.65
2023-11-24T11:10:03.786Z,9.13
2023-11-24T11:12:41.805Z,7.78
2023-11-24T11:15:11.486Z,5.57
2023-11-24T11:17:39.868Z,11.13
2023-11-24T11:20:16.626Z,6.07
2023-11-24T11:22:46.588Z,9.50
2023-11-24T11:25:28.529Z,6.38
2023-11-24T11:27:58.224Z,7.90
2023-11-24T11:30:28.779Z,9.75
2023-11-24T11:33:11.286Z,5.70
2023-11-24T11:35:42.856Z,7.32
2023-11-24T11:38:15.428Z,7.70
2023-11-24T11:40:46.209Z,8.25
2023-11-24T11:43:16.393Z,7.35
2023-11-24T11:45:58.573Z,7.30
2023-11-24T11:48:30.784Z,6.35
2023-11-24T11:51:03.463Z,5.50
2023-11-24T11:53:31.604Z,5.57
2023-11-24T11:56:00.204Z,6.20
2023-11-24T11:58:29.407Z,7.15
2023-11-24T12:00:56.603Z,4.63
2023-11-24T12:03:26.642Z,5.88
2023-11-24T12:05:53.611Z,6.90
2023-11-24T12:08:23.148Z,3.88
2023-11-24T12:10:50.520Z,5.28
2023-11-24T12:13:17.653Z,6.18
2023-11-24T12:15:44.931Z,8.05
2023-11-24T12:18:19.748Z,5.05
2023-11-24T12:20:48.573Z,6.38
2023-11-24T12:23:16.396Z,4.75
2023-11-24T12:25:44.623Z,4.85
2023-11-24T12:28:13.710Z,4.47
2023-11-24T12:30:42.939Z,5.07
2023-11-24T12:33:23.533Z,5.47
2023-11-24T12:35:52.035Z,4.72
2023-11-24T12:38:20.555Z,4.03
2023-11-24T12:40:48.583Z,7.00
2023-11-24T12:43:18.531Z,8.57
2023-11-24T12:45:49.412Z,3.00
2023-11-24T12:48:24.064Z,4.93
2023-11-24T12:50:54.331Z,4.07
2023-11-24T12:53:22.244Z,5.38
2023-11-24T12:55:49.392Z,5.22
2023-11-24T12:58:23.709Z,5.38
2023-11-24T13:00:55.123Z,4.75
2023-11-24T13:03:23.388Z,6.13
2023-11-24T13:05:53.388Z,7.50
2023-11-24T13:08:21.616Z,7.20
2023-11-24T13:10:49.885Z,5.43
2023-11-24T13:13:18.065Z,7.78
2023-11-24T13:15:45.063Z,5.90
2023-11-24T13:18:12.319Z,6.88
2023-11-24T13:20:40.208Z,11.60
2023-11-24T13:23:07.194Z,11.65
2023-11-24T13:25:37.761Z,10.93
2023-11-24T13:28:07.548Z,10.43
2023-11-24T13:30:36.913Z,13.60
2023-11-24T13:33:04.320Z,14.40
2023-11-24T13:35:32.716Z,18.67
2023-11-24T13:38:00.134Z,16.25
2023-11-24T13:40:27.962Z,16.17
2023-11-24T13:42:55.311Z,16.02
2023-11-24T13:45:23.987Z,15.75
2023-11-24T13:47:51.173Z,10.52
2023-11-24T13:50:20.146Z,14.90
2023-11-24T13:52:57.371Z,18.58
2023-11-24T13:55:27.768Z,11.95
2023-11-24T13:57:59.514Z,11.77
2023-11-24T14:00:27.968Z,15.48
2023-11-24T14:02:55.387Z,16.33
2023-11-24T14:05:22.685Z,13.25
2023-11-24T14:07:49.704Z,12.57
2023-11-24T14:10:20.196Z,14.15
2023-11-24T14:12:49.244Z,14.05
2023-11-24T14:15:17.575Z,12.30
2023-11-24T14:17:45.089Z,11.82
2023-11-24T14:20:14.177Z,11.93
2023-11-24T14:22:41.424Z,14.02
2023-11-24T14:25:09.747Z,9.20
2023-11-24T14:27:37.426Z,10.38
2023-11-24T14:30:06.834Z,12.98
2023-11-24T14:32:34.197Z,11.45
2023-11-24T14:35:07.339Z,10.02
2023-11-24T14:37:34.761Z,10.50
2023-11-24T14:40:02.654Z,12.00
2023-11-24T14:42:29.770Z,9.68
2023-11-24T14:44:56.717Z,12.35
2023-11-24T14:47:23.951Z,10.90
2023-11-24T14:49:51.468Z,7.70
2023-11-24T14:52:19.700Z,10.50
2023-11-24T14:54:47.861Z,12.02
2023-11-24T14:57:17.028Z,10.50
2023-11-24T14:59:44.060Z,13.57
2023-11-24T15:02:15.050Z,7.40
2023-11-24T15:04:44.352Z,11.57
2023-11-24T15:07:11.678Z,9.48
2023-11-24T15:09:43.346Z,9.52
2023-11-24T15:12:10.344Z,10.10
2023-11-24T15:14:38.138Z,9.27
2023-11-24T15:17:07.408Z,14.50
2023-11-24T15:19:40.068Z,8.73
2023-11-24T15:22:10.683Z,13.30
2023-11-24T15:24:40.005Z,10.88
2023-11-24T15:27:09.219Z,10.63
2023-11-24T15:29:38.859Z,9.93
2023-11-24T15:32:09.121Z,8.93
2023-11-24T15:34:36.680Z,7.15
2023-11-24T15:37:07.299Z,11.75
2023-11-24T15:39:44.986Z,9.75
2023-11-24T15:42:16.243Z,7.13
2023-11-24T15:44:45.267Z,11.70
2023-11-24T15:47:12.663Z,9.25
2023-11-24T15:49:43.230Z,11.52
2023-11-24T15:52:13.531Z,8.98
2023-11-24T15:54:41.665Z,9.15
2023-11-24T15:57:10.184Z,8.00
2023-11-24T15:59:43.353Z,8.30
2023-11-24T16:02:13.270Z,10.02
2023-11-24T16:04:44.146Z,9.20
2023-11-24T16:07:11.810Z,10.30
2023-11-24T16:09:39.274Z,6.90
2023-11-24T16:12:14.573Z,7.30
2023-11-24T16:14:42.873Z,8.35
2023-11-24T16:17:11.288Z,8.15
2023-11-24T16:19:38.369Z,5.47
2023-11-24T16:22:06.529Z,12.13
2023-11-24T16:24:34.302Z,6.28
2023-11-24T16:27:03.586Z,7.05
2023-11-24T16:29:30.695Z,6.53
2023-11-24T16:32:00.701Z,6.45
2023-11-24T16:34:28.335Z,5.35
2023-11-24T16:36:58.549Z,8.55
2023-11-24T16:39:28.953Z,8.82
2023-11-24T16:41:58.781Z,7.85
2023-11-24T16:44:25.962Z,7.32
2023-11-24T16:46:58.550Z,7.20
2023-11-24T16:49:26.371Z,7.68
2023-11-24T16:51:54.258Z,7.70
2023-11-24T16:54:21.605Z,5.25
2023-11-24T16:56:48.637Z,9.43
2023-11-24T16:59:19.539Z,5.90
2023-11-24T17:01:46.583Z,9.60
2023-11-24T17:04:13.976Z,8.77
2023-11-24T17:06:41.097Z,6.22
2023-11-24T17:09:13.010Z,9.07
2023-11-24T17:11:43.600Z,6.75
2023-11-24T17:14:15.624Z,6.53
2023-11-24T17:16:43.199Z,7.18
2023-11-24T17:19:10.672Z,7.00
2023-11-24T17:21:40.942Z,7.90
2023-11-24T17:24:08.405Z,5.65
2023-11-24T17:26:35.338Z,7.15
2023-11-24T17:29:03.592Z,5.97
2023-11-24T17:31:32.309Z,6.28
2023-11-24T17:33:59.648Z,6.57
2023-11-24T17:36:26.720Z,5.72
2023-11-24T17:38:53.680Z,6.68
2023-11-24T17:41:20.593Z,6.32
2023-11-24T17:43:48.923Z,5.80
2023-11-24T17:46:15.928Z,6.57
2023-11-24T17:48:44.147Z,5.57
2023-11-24T17:51:11.241Z,6.60
2023-11-24T17:53:38.320Z,5.53
2023-11-24T17:56:05.705Z,7.05
2023-11-24T17:58:33.438Z,7.68
2023-11-24T18:01:01.556Z,5.97
2023-11-24T18:03:28.598Z,6.22
2023-11-24T18:05:55.555Z,6.55
2023-11-24T18:08:23.456Z,6.80
2023-11-24T18:10:51.085Z,7.80
2023-11-24T18:13:18.419Z,5.35
2023-11-24T18:15:45.627Z,5.32
2023-11-24T18:18:13.017Z,5.10
2023-11-24T18:20:41.418Z,5.78
2023-11-24T18:23:08.705Z,3.92
2023-11-24T18:25:39.762Z,4.95
2023-11-24T18:28:12.624Z,5.82
2023-11-24T18:30:39.833Z,3.80
2023-11-24T18:33:10.036Z,6.00
2023-11-24T18:35:38.578Z,5.95
2023-11-24T18:38:05.503Z,4.95
2023-11-24T18:40:32.871Z,6.40
2023-11-24T18:43:00.090Z,4.30
2023-11-24T18:45:27.137Z,4.50
2023-11-24T18:47:54.266Z,6.00
2023-11-24T18:50:23.368Z,5.50
2023-11-24T18:52:50.325Z,6.40
2023-11-24T18:55:18.517Z,9.13
2023-11-24T18:57:48.127Z,11.40
2023-11-24T19:00:20.260Z,3.65
2023-11-24T19:02:51.123Z,3.92
2023-11-24T19:05:19.476Z,5.63
2023-11-24T19:07:46.531Z,6.75
2023-11-24T19:10:18.538Z,6.43
2023-11-24T19:12:47.619Z,3.97
2023-11-24T19:15:14.582Z,8.55
2023-11-24T19:17:41.704Z,8.38
2023-11-24T19:20:09.274Z,4.93
2023-11-24T19:22:36.786Z,7.57
2023-11-24T19:25:04.320Z,6.90
2023-11-24T19:27:33.792Z,5.47
2023-11-24T19:30:00.736Z,5.72
2023-11-24T19:32:28.771Z,3.22
2023-11-24T19:34:55.952Z,3.85
2023-11-24T19:37:22.866Z,6.78
2023-11-24T19:39:51.732Z,3.55
2023-11-24T19:42:22.263Z,4.68
2023-11-24T19:44:49.587Z,5.00
2023-11-24T19:47:16.579Z,4.18
2023-11-24T19:49:43.523Z,4.57
2023-11-24T19:52:11.154Z,4.63
2023-11-24T19:54:39.045Z,7.82
2023-11-24T19:57:06.217Z,5.78
2023-11-24T19:59:33.152Z,8.30
2023-11-24T20:02:00.291Z,4.95
2023-11-24T20:04:28.462Z,7.10
2023-11-24T20:06:55.572Z,7.82
2023-11-24T20:09:23.809Z,6.07
2023-11-24T20:11:53.356Z,3.92
2023-11-24T20:14:20.601Z,5.38
2023-11-24T20:16:48.981Z,5.43
2023-11-24T20:19:16.284Z,6.43
2023-11-24T20:21:43.423Z,5.22
2023-11-24T20:24:11.810Z,4.22
2023-11-24T20:26:41.106Z,4.45
2023-11-24T20:29:08.880Z,5.53
2023-11-24T20:31:36.299Z,4.35
2023-11-24T20:34:03.353Z,7.65
2023-11-24T20:36:30.292Z,4.95
2023-11-24T20:38:58.857Z,7.53
2023-11-24T20:41:26.362Z,11.07
2023-11-24T20:43:56.263Z,6.88
2023-11-24T20:46:23.453Z,9.13
2023-11-24T20:48:50.451Z,6.03
2023-11-24T20:51:18.841Z,6.78
2023-11-24T20:53:45.843Z,7.70
2023-11-24T20:56:13.108Z,6.00
2023-11-24T20:58:40.237Z,6.30
2023-11-24T21:01:07.456Z,6.35
2023-11-24T21:03:37.318Z,9.57
2023-11-24T21:06:04.705Z,9.75
2023-11-24T21:08:31.659Z,6.03
2023-11-24T21:10:58.675Z,7.57
2023-11-24T21:13:28.058Z,6.45
2023-11-24T21:15:55.144Z,7.53
2023-11-24T21:18:31.054Z,8.95
2023-11-24T21:20:58.686Z,9.33
2023-11-24T21:23:27.430Z,10.85
2023-11-24T21:25:54.442Z,7.82
2023-11-24T21:28:21.373Z,10.18
2023-11-24T21:30:48.634Z,6.88
2023-11-24T21:33:15.716Z,6.47
2023-11-24T21:35:42.715Z,4.00
2023-11-24T21:38:11.006Z,6.35
2023-11-24T21:40:38.248Z,4.70
2023-11-24T21:43:05.353Z,7.78
2023-11-24T21:45:32.229Z,6.97
2023-11-24T21:47:59.421Z,5.93
2023-11-24T21:50:26.492Z,4.40
2023-11-24T21:52:53.937Z,5.82
2023-11-24T21:55:21.313Z,7.88
2023-11-24T21:57:50.411Z,7.78
2023-11-24T22:00:19.013Z,5.60
2023-11-24T22:02:46.433Z,6.68
2023-11-24T22:05:14.697Z,5.30
2023-11-24T22:07:42.376Z,6.72
2023-11-24T22:10:10.030Z,6.65
2023-11-24T22:12:38.194Z,7.63
2023-11-24T22:15:06.218Z,5.38
2023-11-24T22:17:34.430Z,6.40
2023-11-24T22:20:08.167Z,7.10
2023-11-24T22:22:35.641Z,7.05
2023-11-24T22:25:02.990Z,7.18
2023-11-24T22:27:30.121Z,6.78
2023-11-24T22:30:03.982Z,5.50
2023-11-24T22:32:33.426Z,5.85
2023-11-24T22:35:01.087Z,5.07
2023-11-24T22:37:28.734Z,5.18
2023-11-24T22:39:55.732Z,5.22
2023-11-24T22:42:23.358Z,8.60
2023-11-24T22:44:51.274Z,4.75
2023-11-24T22:47:18.998Z,5.72
2023-11-24T22:49:46.276Z,3.63
2023-11-24T22:52:13.237Z,4.90
2023-11-24T22:54:40.480Z,5.50
2023-11-24T22:57:07.650Z,3.47
2023-11-24T22:59:34.917Z,5.13
2023-11-24T23:02:02.029Z,7.50
2023-11-24T23:04:29.242Z,4.38
2023-11-24T23:06:56.445Z,6.60
2023-11-24T23:09:23.476Z,5.28
2023-11-24T23:11:50.649Z,4.32
2023-11-24T23:14:17.694Z,5.00
2023-11-24T23:16:45.329Z,5.68
2023-11-24T23:19:13.183Z,4.03
2023-11-24T23:21:42.289Z,4.68
2023-11-24T23:24:12.133Z,4.07
2023-11-24T23:26:39.984Z,5.38
2023-11-24T23:29:08.286Z,3.95
2023-11-24T23:31:36.039Z,3.78
2023-11-24T23:34:03.406Z,4.07
2023-11-24T23:36:30.310Z,3.38
2023-11-24T23:38:57.387Z,3.45
2023-11-24T23:41:24.432Z,3.78
2023-11-24T23:43:51.493Z,4.07
2023-11-24T23:46:18.662Z,5.72
2023-11-24T23:48:45.893Z,4.25
2023-11-24T23:51:13.366Z,3.80
2023-11-24T23:53:41.100Z,3.00
2023-11-24T23:56:08.606Z,5.53
2023-11-24T23:58:37.858Z,3.10
